Pu Dun — XUUB9 — position and weather

sailwx.info

Track history (hours):
 
Tides and Currents Weather Stations Pressure Air Temp Water Temp Dewpoint Dewpoint Depression Visibility Wind Speed Wind Dir Waves Ship Positions

Pu Dun

Last reported at 2015-Apr-18 12:27 UTC. Time now 2015-Apr-22 03:53 UTC.
Position N 35°04' E 139°38'.

Length 75 m; draft 3.3 m.

Type: Cargo ship. MMSI: 515213000.

Date/timePositionNaut miles runAvg speedWind from/ knotsBaromVisibWave heightAir tempDewpointWater temp
2015-Apr-18 12:27N 35°04' E 139°38'9 9.4
2015-Apr-18 11:31N 35°10' E 139°45'9 9.6
2015-Apr-18 10:33N 35°19' E 139°43'10 9.4
2015-Apr-18 09:32N 35°28' E 139°48'10 9.8
2015-Apr-18 08:33N 35°32' E 139°59'6 5.9
2015-Apr-18 07:30N 35°33' E 140°06'0 0.0
2015-Apr-18 06:27N 35°33' E 140°06'0 0.0
2015-Apr-18 05:27N 35°33' E 140°06'0 0.0
2015-Apr-18 04:24N 35°33' E 140°06'0 0.0
2015-Apr-18 02:33N 35°33' E 140°06'0 0.0
2015-Apr-18 01:33N 35°33' E 140°06'0 0.0
2015-Apr-18 00:27N 35°33' E 140°06'0 0.0
2015-Apr-17 23:30N 35°33' E 140°06'0 0.0
2015-Apr-17 22:30N 35°33' E 140°06'0 0.0
2015-Apr-17 21:33N 35°33' E 140°06'0 0.0
2015-Apr-17 20:33N 35°33' E 140°06'0 0.0
2015-Apr-17 19:24N 35°33' E 140°06'0 0.0
2015-Apr-17 18:33N 35°33' E 140°06'0 0.0
2015-Apr-17 17:30N 35°33' E 140°06'0 0.0
2015-Apr-17 15:27N 35°33' E 140°06'0 0.0
2015-Apr-17 14:33N 35°33' E 140°06'0 0.0
2015-Apr-17 13:27N 35°33' E 140°06'0 0.0
2015-Apr-17 12:09N 35°33' E 140°06'0 0.0
2015-Apr-17 11:27N 35°33' E 140°06'0 0.0
2015-Apr-17 10:33N 35°33' E 140°06'0 0.0
2015-Apr-17 09:18N 35°33' E 140°06'0 0.0
2015-Apr-17 08:27N 35°33' E 140°06'0 0.0
2015-Apr-17 07:18N 35°33' E 140°06'0 0.0
2015-Apr-17 06:33N 35°33' E 140°06'0 0.0
2015-Apr-17 04:27N 35°33' E 140°06'0 0.0
2015-Apr-17 03:24N 35°33' E 140°06'0 0.0
2015-Apr-17 02:30N 35°33' E 140°06'0 0.0
2015-Apr-17 01:30N 35°33' E 140°06'0 0.0
2015-Apr-17 00:33N 35°33' E 140°06'0 0.0
2015-Apr-16 23:33N 35°33' E 140°06'3 3.1
2015-Apr-16 22:33N 35°34' E 140°03'0 0.5
2015-Apr-16 21:32N 35°33' E 140°02'0 0.0
2015-Apr-16 20:13N 35°33' E 140°02'0 0.0
2015-Apr-16 19:31N 35°33' E 140°02'0 0.0
2015-Apr-16 18:25N 35°33' E 140°02'0 0.0
2015-Apr-16 17:31N 35°33' E 140°02'0 0.0
2015-Apr-16 16:31N 35°33' E 140°02'0 0.0
2015-Apr-16 15:22N 35°33' E 140°02'0 0.0
2015-Apr-16 14:25N 35°33' E 140°02'0 0.0
2015-Apr-16 13:31N 35°33' E 140°02'0 0.0
2015-Apr-16 12:31N 35°33' E 140°02'0 0.0
2015-Apr-16 11:31N 35°33' E 140°02'0 0.0
2015-Apr-16 10:13N 35°33' E 140°02'1 2.0
2015-Apr-16 09:33N 35°33' E 140°01'1010.4
2015-Apr-16 08:33N 35°27' E 139°50'10 9.4
2015-Apr-16 07:27N 35°18' E 139°45'910.1
2015-Apr-16 06:33N 35°09' E 139°47'  
2015-Apr-11 16:31N 36°46' E 123°37'  
Track history (hours):
 
Tides and Currents Weather Stations Pressure Air Temp Water Temp Dewpoint Dewpoint Depression Visibility Wind Speed Wind Dir Waves Ship Positions

Pu Dun

Last reported at 2015-Apr-18 12:27 UTC. Time now 2015-Apr-22 03:53 UTC.
Position N 35°04' E 139°38'.

Length 75 m; draft 3.3 m.

Type: Cargo ship. MMSI: 515213000.

Date/timePositionNaut miles runAvg speedWind from/ knotsBaromVisibWave heightAir tempDewpointWater temp
2015-Apr-18 12:27N 35°04' E 139°38'9 9.4
2015-Apr-18 11:31N 35°10' E 139°45'9 9.6
2015-Apr-18 10:33N 35°19' E 139°43'10 9.4
2015-Apr-18 09:32N 35°28' E 139°48'10 9.8
2015-Apr-18 08:33N 35°32' E 139°59'6 5.9
2015-Apr-18 07:30N 35°33' E 140°06'0 0.0
2015-Apr-18 06:27N 35°33' E 140°06'0 0.0
2015-Apr-18 05:27N 35°33' E 140°06'0 0.0
2015-Apr-18 04:24N 35°33' E 140°06'0 0.0
2015-Apr-18 02:33N 35°33' E 140°06'0 0.0
2015-Apr-18 01:33N 35°33' E 140°06'0 0.0
2015-Apr-18 00:27N 35°33' E 140°06'0 0.0
2015-Apr-17 23:30N 35°33' E 140°06'0 0.0
2015-Apr-17 22:30N 35°33' E 140°06'0 0.0
2015-Apr-17 21:33N 35°33' E 140°06'0 0.0
2015-Apr-17 20:33N 35°33' E 140°06'0 0.0
2015-Apr-17 19:24N 35°33' E 140°06'0 0.0
2015-Apr-17 18:33N 35°33' E 140°06'0 0.0
2015-Apr-17 17:30N 35°33' E 140°06'0 0.0
2015-Apr-17 15:27N 35°33' E 140°06'0 0.0
2015-Apr-17 14:33N 35°33' E 140°06'0 0.0
2015-Apr-17 13:27N 35°33' E 140°06'0 0.0
2015-Apr-17 12:09N 35°33' E 140°06'0 0.0
2015-Apr-17 11:27N 35°33' E 140°06'0 0.0
2015-Apr-17 10:33N 35°33' E 140°06'0 0.0
2015-Apr-17 09:18N 35°33' E 140°06'0 0.0
2015-Apr-17 08:27N 35°33' E 140°06'0 0.0
2015-Apr-17 07:18N 35°33' E 140°06'0 0.0
2015-Apr-17 06:33N 35°33' E 140°06'0 0.0
2015-Apr-17 04:27N 35°33' E 140°06'0 0.0
2015-Apr-17 03:24N 35°33' E 140°06'0 0.0
2015-Apr-17 02:30N 35°33' E 140°06'0 0.0
2015-Apr-17 01:30N 35°33' E 140°06'0 0.0
2015-Apr-17 00:33N 35°33' E 140°06'0 0.0
2015-Apr-16 23:33N 35°33' E 140°06'3 3.1
2015-Apr-16 22:33N 35°34' E 140°03'0 0.5
2015-Apr-16 21:32N 35°33' E 140°02'0 0.0
2015-Apr-16 20:13N 35°33' E 140°02'0 0.0
2015-Apr-16 19:31N 35°33' E 140°02'0 0.0
2015-Apr-16 18:25N 35°33' E 140°02'0 0.0
2015-Apr-16 17:31N 35°33' E 140°02'0 0.0
2015-Apr-16 16:31N 35°33' E 140°02'0 0.0
2015-Apr-16 15:22N 35°33' E 140°02'0 0.0
2015-Apr-16 14:25N 35°33' E 140°02'0 0.0
2015-Apr-16 13:31N 35°33' E 140°02'0 0.0
2015-Apr-16 12:31N 35°33' E 140°02'0 0.0
2015-Apr-16 11:31N 35°33' E 140°02'0 0.0
2015-Apr-16 10:13N 35°33' E 140°02'1 2.0
2015-Apr-16 09:33N 35°33' E 140°01'1010.4
2015-Apr-16 08:33N 35°27' E 139°50'10 9.4
2015-Apr-16 07:27N 35°18' E 139°45'910.1
2015-Apr-16 06:33N 35°09' E 139°47'  
2015-Apr-11 16:31N 36°46' E 123°37'  

Dump ship's entire track history